Terminal Aerodrome Forecast
Issued by NWS

Home | Current Version | Previous Version | Text Only | Print | Product List | Glossary On
Versions: 1 2 3 4 5 6 7 8 9 10 11 12 13 14 15 16 17 18 19
000
FTUS43 KSGF 242320
TAFJLN
TAF
KJLN 242320Z 2500/2524 16015KT P6SM BKN250
     FM250500 17012KT P6SM OVC070
     FM250800 17008KT P6SM VCTS SCT015CB OVC050
     FM251000 18012KT 5SM -TSRA BR OVC015CB
     FM251200 18010KT P6SM VCSH BKN020=

USA.gov is the U.S. government's official web portal to all federal, state and local government web resources and services.